createdAt,value
2019-01-26T00:01:25.874Z,22.93
2019-01-26T00:03:53.280Z,20.17
2019-01-26T00:06:20.759Z,17.10
2019-01-26T00:08:48.500Z,13.53
2019-01-26T00:11:15.951Z,12.07
2019-01-26T00:13:43.361Z,11.28
2019-01-26T00:16:10.769Z,12.13
2019-01-26T00:18:38.202Z,10.88
2019-01-26T00:21:05.623Z,10.50
2019-01-26T00:23:33.347Z,10.30
2019-01-26T00:26:00.759Z,10.55
2019-01-26T00:28:28.192Z,11.90
2019-01-26T00:30:55.929Z,10.28
2019-01-26T00:33:23.695Z,8.90
2019-01-26T00:35:51.102Z,9.98
2019-01-26T00:38:18.503Z,9.23
2019-01-26T00:40:46.022Z,9.85
2019-01-26T00:43:14.247Z,10.60
2019-01-26T00:45:41.663Z,11.43
2019-01-26T00:48:09.134Z,14.73
2019-01-26T00:50:36.556Z,11.75
2019-01-26T00:53:04.000Z,11.53
2019-01-26T00:55:31.441Z,12.58
2019-01-26T00:57:58.917Z,11.28
2019-01-26T01:00:26.432Z,11.38
2019-01-26T01:02:53.839Z,12.60
2019-01-26T01:05:21.356Z,11.18
2019-01-26T01:07:48.803Z,11.40
2019-01-26T01:10:17.587Z,11.50
2019-01-26T01:12:45.095Z,10.93
2019-01-26T01:15:14.044Z,11.97
2019-01-26T01:17:41.909Z,12.68
2019-01-26T01:20:10.337Z,11.43
2019-01-26T01:22:38.186Z,13.83
2019-01-26T01:25:07.067Z,11.00
2019-01-26T01:27:34.507Z,12.47
2019-01-26T01:30:02.011Z,15.55
2019-01-26T01:32:29.418Z,14.07
2019-01-26T01:34:56.851Z,11.50
2019-01-26T01:37:24.268Z,13.78
2019-01-26T01:39:51.706Z,13.05
2019-01-26T01:42:19.122Z,17.40
2019-01-26T01:44:46.537Z,11.43
2019-01-26T01:47:13.972Z,14.40
2019-01-26T01:49:41.387Z,13.05
2019-01-26T01:52:08.816Z,15.28
2019-01-26T01:54:36.572Z,14.95
2019-01-26T01:57:04.343Z,15.10
2019-01-26T01:59:31.757Z,15.78
2019-01-26T02:01:59.199Z,13.25
2019-01-26T02:04:26.609Z,14.13
2019-01-26T02:06:54.044Z,13.90
2019-01-26T02:09:21.934Z,15.30
2019-01-26T02:11:49.346Z,14.05
2019-01-26T02:14:16.770Z,17.17
2019-01-26T02:16:50.029Z,15.28
2019-01-26T02:19:13.341Z,18.82
2019-01-26T02:21:40.781Z,18.98
2019-01-26T02:24:08.194Z,20.80
2019-01-26T02:26:35.628Z,20.45
2019-01-26T02:29:03.341Z,24.15
2019-01-26T02:31:31.106Z,23.07
2019-01-26T02:33:58.545Z,22.27
2019-01-26T02:36:25.999Z,22.58
2019-01-26T02:38:53.424Z,23.22
2019-01-26T02:41:20.829Z,25.05
2019-01-26T02:43:48.610Z,25.92
2019-01-26T02:46:16.033Z,25.55
2019-01-26T02:48:43.710Z,25.12
2019-01-26T02:51:11.494Z,22.17
2019-01-26T02:53:38.904Z,25.15
2019-01-26T02:56:06.619Z,23.25
2019-01-26T02:58:34.028Z,23.57
2019-01-26T03:01:01.527Z,22.58
2019-01-26T03:03:28.968Z,22.73
2019-01-26T03:05:56.393Z,20.30
2019-01-26T03:08:23.831Z,23.62
2019-01-26T03:10:51.256Z,21.65
2019-01-26T03:13:19.022Z,23.77
2019-01-26T03:15:46.445Z,19.25
2019-01-26T03:18:14.652Z,20.00
2019-01-26T03:20:42.419Z,24.23
2019-01-26T03:23:09.834Z,21.12
2019-01-26T03:25:37.267Z,23.07
2019-01-26T03:28:04.739Z,19.85
2019-01-26T03:30:32.184Z,22.90
2019-01-26T03:32:59.918Z,18.42
2019-01-26T03:35:27.678Z,19.02
2019-01-26T03:37:55.162Z,21.37
2019-01-26T03:40:22.665Z,21.27
2019-01-26T03:42:50.177Z,21.35
2019-01-26T03:45:17.662Z,20.70
2019-01-26T03:47:45.595Z,20.23
2019-01-26T03:50:13.974Z,23.20
2019-01-26T03:52:41.453Z,16.93
2019-01-26T03:55:10.561Z,18.75
2019-01-26T03:57:38.044Z,19.77
2019-01-26T04:00:16.178Z,17.65
2019-01-26T04:02:43.960Z,17.10
2019-01-26T04:05:11.928Z,16.25
2019-01-26T04:07:39.345Z,17.95
2019-01-26T04:10:08.183Z,18.10
2019-01-26T04:12:35.937Z,17.67
2019-01-26T04:15:04.163Z,18.32
2019-01-26T16:10:48.925Z,18.98
2019-01-26T16:13:16.446Z,19.00
2019-01-26T16:15:43.952Z,21.20
2019-01-26T16:21:05.444Z,21.50
2019-01-26T16:23:32.924Z,18.65
2019-01-26T16:26:00.346Z,20.70
2019-01-26T16:28:27.854Z,22.93
2019-01-26T16:30:55.266Z,24.98
2019-01-26T16:33:23.496Z,23.45
2019-01-26T16:35:50.940Z,26.00
2019-01-26T16:38:18.354Z,30.52
2019-01-26T16:40:45.847Z,28.73
2019-01-26T16:43:13.277Z,26.23
2019-01-26T16:45:40.711Z,29.05
2019-01-26T16:51:02.336Z,28.23
2019-01-26T16:53:29.733Z,29.05
2019-01-26T16:55:57.226Z,26.37
2019-01-26T16:58:24.641Z,25.40
2019-01-26T17:00:52.149Z,25.20
2019-01-26T17:03:19.579Z,26.15
2019-01-26T17:05:47.066Z,24.23
2019-01-26T17:08:14.547Z,24.32
2019-01-26T17:10:41.985Z,28.42
2019-01-26T17:13:09.465Z,23.80
2019-01-26T17:15:36.903Z,24.23
2019-01-26T17:20:58.186Z,25.72
2019-01-26T17:23:25.644Z,24.70
2019-01-26T17:25:53.050Z,26.42
2019-01-26T17:28:20.457Z,24.05
2019-01-26T17:33:20.867Z,29.72
2019-01-26T17:35:48.276Z,35.95
2019-01-26T17:38:15.685Z,29.70
2019-01-26T17:40:43.130Z,31.93
2019-01-26T17:46:17.881Z,35.30
2019-01-26T17:48:45.446Z,33.00
2019-01-26T17:51:12.920Z,33.28
2019-01-26T17:53:40.310Z,35.00
2019-01-26T17:56:07.733Z,34.00
2019-01-26T17:58:35.174Z,37.98
2019-01-26T18:01:02.956Z,35.50
2019-01-26T18:11:36.172Z,35.48
2019-01-26T18:16:59.258Z,37.65
2019-01-26T18:25:02.297Z,30.08
2019-01-26T18:27:29.757Z,35.20
2019-01-26T18:29:57.174Z,29.50
2019-01-26T18:32:24.579Z,30.32
2019-01-26T18:34:52.079Z,31.70
2019-01-26T18:37:19.500Z,27.82
2019-01-26T18:39:46.901Z,31.20
2019-01-26T18:42:14.341Z,31.50
2019-01-26T18:44:41.763Z,35.95
2019-01-26T18:47:09.219Z,33.30
2019-01-26T18:52:23.133Z,35.45
2019-01-26T18:54:50.541Z,33.67
2019-01-26T19:08:46.454Z,31.52
2019-01-26T19:11:13.895Z,31.57
2019-01-26T19:13:41.307Z,35.65
2019-01-26T19:16:08.730Z,32.63
2019-01-26T19:21:08.771Z,30.50
2019-01-26T19:23:36.353Z,36.48
2019-01-26T19:28:52.309Z,28.90
2019-01-26T19:31:19.719Z,27.65
2019-01-26T19:33:47.175Z,28.60
2019-01-26T19:36:14.587Z,24.30
2019-01-26T19:38:41.989Z,23.45
2019-01-26T19:41:09.527Z,23.95
2019-01-26T19:43:36.928Z,26.05
2019-01-26T19:46:04.402Z,22.62
2019-01-26T19:48:31.840Z,20.77
2019-01-26T19:50:59.252Z,20.75
2019-01-26T19:53:26.686Z,23.65
2019-01-26T19:58:40.623Z,22.27
2019-01-26T20:01:08.126Z,22.77
2019-01-26T20:06:29.799Z,17.65
2019-01-26T20:08:57.209Z,21.65
2019-01-26T20:11:24.645Z,19.60
2019-01-26T20:13:52.133Z,21.15
2019-01-26T20:16:19.564Z,22.30
2019-01-26T20:18:46.977Z,16.77
2019-01-26T20:21:17.769Z,19.15
2019-01-26T20:23:43.534Z,19.17
2019-01-26T20:26:10.966Z,18.87
2019-01-26T20:28:38.383Z,17.32
2019-01-26T20:31:09.347Z,15.63
2019-01-26T20:33:41.307Z,15.75
2019-01-26T20:36:13.222Z,15.23
2019-01-26T20:41:37.377Z,15.85
2019-01-26T20:44:07.300Z,19.32
2019-01-26T20:46:35.962Z,15.90
2019-01-26T20:49:04.085Z,16.05
2019-01-26T20:51:31.999Z,15.78
2019-01-26T20:54:01.217Z,15.58
2019-01-26T21:07:11.292Z,19.12
2019-01-26T21:12:00.538Z,15.25
2019-01-26T21:17:16.630Z,15.15
2019-01-26T21:22:22.139Z,12.15
2019-01-26T21:25:09.780Z,13.25
2019-01-26T21:27:41.554Z,13.05
2019-01-26T21:33:31.269Z,13.68
2019-01-26T21:35:47.101Z,14.40
2019-01-26T21:38:33.061Z,12.73
2019-01-26T21:43:18.570Z,12.35
2019-01-26T21:46:06.640Z,12.03
2019-01-26T21:48:34.089Z,14.95
2019-01-26T21:51:01.674Z,12.35
2019-01-26T21:53:49.428Z,14.43
2019-01-26T21:56:18.225Z,12.95
2019-01-26T21:58:46.239Z,12.45
2019-01-26T22:01:14.585Z,10.68
2019-01-26T22:03:43.044Z,11.88
2019-01-26T22:31:08.150Z,9.03
2019-01-26T22:34:10.169Z,8.83
2019-01-26T22:39:20.503Z,8.90
2019-01-26T22:44:56.642Z,7.95
2019-01-26T22:47:24.069Z,7.90
2019-01-26T22:50:10.253Z,8.78
2019-01-26T22:52:23.450Z,12.78
2019-01-26T22:55:11.950Z,8.98
2019-01-26T22:57:39.918Z,9.00
2019-01-26T23:00:28.546Z,12.68
2019-01-26T23:02:55.973Z,9.70
2019-01-26T23:05:42.821Z,11.45
2019-01-26T23:08:11.809Z,9.50
2019-01-26T23:11:00.666Z,8.78
2019-01-26T23:16:35.679Z,8.73
2019-01-26T23:19:10.708Z,7.83
2019-01-26T23:21:57.442Z,7.58
2019-01-26T23:24:44.207Z,8.05
2019-01-26T23:30:25.542Z,8.88
2019-01-26T23:33:14.666Z,8.58
2019-01-26T23:35:42.822Z,9.45
2019-01-26T23:38:10.262Z,10.20
2019-01-26T23:40:39.416Z,8.98
2019-01-26T23:43:07.004Z,10.00
2019-01-26T23:45:49.535Z,11.93
2019-01-26T23:50:52.860Z,9.15
2019-01-26T23:53:20.882Z,8.13
2019-01-26T23:55:48.495Z,8.70
2019-01-26T23:58:37.731Z,8.05
